KOKB

Bob Maxwell Memorial Airfield Airport

Oceanside, California, USA
METAR KOKB 151352Z AUTO 00000KT 10SM OVC019 23/17 A2990 RMK AO2 SLP125 T02280172
Observed Flight Rules
Aug-15 @ 13:52 UTC (an hour ago) Marginal Visual Flight Rules
Visibility Clouds
10 miles
  • Overcast at 1,900' AGL
Temperatures Readings
Current 23°C / 73°F
Dewpoint 17°C / 63°F
Humidity 69%
Altimeter 29.9" Hg
Pressure 1012.5 hPa
Elevation 8
METAR KOKB 151352Z AUTO 00000KT 10SM OVC019 23/17 A2990 RMK AO2 SLP125 T02280172
Observed Flight Rules
Aug-15 @ 13:52 UTC
(an hour ago)
MVFR
Clouds
  • Overcast at 1,900' AGL
Temperature Dewpoint
23°C / 73°F 17°C / 63°F
Humidity Altimeter Pressure
69% 29.9" Hg 1012.5 hPa